createdAt,value
2018-08-24T01:43:26.560Z,6.03
2018-08-24T01:45:54.210Z,5.30
2018-08-24T01:48:22.104Z,6.03
2018-08-24T01:50:49.745Z,8.57
2018-08-24T01:53:17.350Z,8.13
2018-08-24T01:55:44.995Z,9.07
2018-08-24T01:58:12.594Z,7.47
2018-08-24T02:00:40.284Z,10.70
2018-08-24T02:03:07.922Z,8.47
2018-08-24T02:05:35.687Z,9.37
2018-08-24T02:08:03.352Z,9.53
2018-08-24T02:10:31.107Z,9.70
2018-08-24T02:12:58.731Z,9.40
2018-08-24T02:15:26.450Z,9.30
2018-08-24T02:17:54.180Z,9.60
2018-08-24T02:20:27.322Z,9.23
2018-08-24T02:22:55.002Z,9.53
2018-08-24T02:25:22.599Z,9.13
2018-08-24T02:27:50.285Z,9.23
2018-08-24T02:30:17.923Z,9.43
2018-08-24T02:32:46.439Z,9.63
2018-08-24T02:35:14.521Z,11.73
2018-08-24T02:37:42.208Z,9.27
2018-08-24T02:40:10.000Z,10.50
2018-08-24T02:42:37.759Z,10.33
2018-08-24T02:45:05.666Z,10.17
2018-08-24T02:47:33.183Z,10.73
2018-08-24T02:50:00.753Z,9.53
2018-08-24T02:52:28.516Z,9.60
2018-08-24T02:54:56.042Z,9.90
2018-08-24T02:57:23.621Z,10.97
2018-08-24T02:59:51.154Z,11.23
2018-08-24T03:02:18.744Z,11.00
2018-08-24T03:04:46.274Z,10.67
2018-08-24T03:07:13.812Z,10.53
2018-08-24T03:09:41.373Z,9.87
2018-08-24T03:12:08.902Z,9.90
2018-08-24T03:14:36.486Z,10.30
2018-08-24T03:17:04.035Z,10.43
2018-08-24T03:19:32.728Z,10.63
2018-08-24T03:22:00.258Z,10.30
2018-08-24T03:24:27.845Z,10.87
2018-08-24T03:26:55.369Z,10.33
2018-08-24T03:29:24.195Z,10.90
2018-08-24T03:31:51.797Z,10.77
2018-08-24T03:34:19.325Z,12.03
2018-08-24T03:36:46.882Z,13.07
2018-08-24T03:39:14.439Z,12.97
2018-08-24T03:41:42.031Z,12.23
2018-08-24T03:44:09.729Z,14.60
2018-08-24T03:46:37.283Z,13.20
2018-08-24T03:49:04.845Z,15.33
2018-08-24T03:51:32.453Z,13.73
2018-08-24T03:54:00.345Z,16.80
2018-08-24T03:56:27.920Z,14.63
2018-08-24T03:58:55.480Z,14.43
2018-08-24T04:01:23.023Z,16.27
2018-08-24T04:03:50.598Z,16.13
2018-08-24T04:06:18.158Z,16.90
2018-08-24T04:08:45.931Z,18.60
2018-08-24T04:11:13.531Z,20.50
2018-08-24T04:13:41.074Z,20.70
2018-08-24T04:16:08.660Z,18.43
2018-08-24T04:18:36.182Z,19.03
2018-08-24T04:21:03.756Z,18.43
2018-08-24T04:23:31.351Z,19.67
2018-08-24T04:25:58.924Z,18.17
2018-08-24T04:28:26.495Z,18.37
2018-08-24T04:30:54.092Z,20.20
2018-08-24T04:33:21.636Z,20.33
2018-08-24T04:35:49.214Z,19.13
2018-08-24T04:38:16.790Z,18.73
2018-08-24T04:40:44.352Z,20.23
2018-08-24T04:43:11.938Z,16.13
2018-08-24T04:45:39.619Z,15.17
2018-08-24T04:48:07.080Z,16.57
2018-08-24T04:50:34.613Z,15.67
2018-08-24T04:53:02.172Z,14.83
2018-08-24T04:55:29.686Z,15.90
2018-08-24T04:57:57.268Z,15.13
2018-08-24T05:00:24.800Z,14.33
2018-08-24T05:02:52.382Z,14.67
2018-08-24T05:05:19.927Z,15.10
2018-08-24T05:07:47.503Z,15.80
2018-08-24T05:10:15.078Z,15.10
2018-08-24T05:12:42.673Z,13.23
2018-08-24T05:15:10.240Z,14.80
2018-08-24T05:17:37.755Z,13.77
2018-08-24T05:20:05.365Z,18.23
2018-08-24T05:22:32.934Z,16.43
2018-08-24T05:25:00.505Z,14.27
2018-08-24T05:27:28.030Z,15.53
2018-08-24T05:29:55.728Z,17.23
2018-08-24T05:32:23.457Z,17.30
2018-08-24T05:34:51.048Z,15.33
2018-08-24T05:37:18.605Z,17.90
2018-08-24T05:39:46.153Z,14.60
2018-08-24T05:42:13.764Z,16.67
2018-08-24T05:44:41.399Z,16.67
2018-08-24T05:47:08.954Z,16.77
2018-08-24T05:49:36.676Z,18.23
2018-08-24T05:52:04.266Z,19.37
2018-08-24T05:54:31.853Z,15.90
2018-08-24T05:56:59.374Z,20.20
2018-08-24T05:59:26.900Z,18.03
2018-08-24T06:01:54.469Z,21.20
2018-08-24T06:04:22.011Z,24.33
2018-08-24T06:06:49.579Z,18.50
2018-08-24T06:09:17.119Z,18.83
2018-08-24T06:11:44.702Z,18.53
2018-08-24T06:14:12.235Z,22.43
2018-08-24T06:16:39.799Z,19.10
2018-08-24T06:19:07.381Z,19.57
2018-08-24T06:21:34.910Z,22.93
2018-08-24T06:24:02.547Z,20.80
2018-08-24T06:26:30.139Z,18.70
2018-08-24T06:28:57.677Z,22.83
2018-08-24T06:31:25.208Z,22.87
2018-08-24T06:33:52.762Z,23.30
2018-08-24T06:36:20.470Z,20.37
2018-08-24T06:38:48.088Z,20.80
2018-08-24T06:41:15.609Z,19.97
2018-08-24T06:43:43.181Z,21.50
2018-08-24T06:46:10.720Z,24.73
2018-08-24T06:48:38.435Z,21.90
2018-08-24T06:51:06.041Z,21.07
2018-08-24T06:53:33.933Z,24.70
2018-08-24T06:56:01.458Z,27.40
2018-08-24T06:58:29.222Z,22.87
2018-08-24T07:00:57.146Z,21.43
2018-08-24T07:03:24.712Z,24.50
2018-08-24T07:05:52.412Z,20.97
2018-08-24T07:08:19.985Z,18.80
2018-08-24T07:10:47.554Z,21.53
2018-08-24T07:13:15.161Z,27.63
2018-08-24T07:15:42.745Z,22.57
2018-08-24T07:18:10.487Z,21.60
2018-08-24T07:20:38.058Z,23.57
2018-08-24T07:23:05.641Z,20.03
2018-08-24T07:25:33.410Z,21.00
2018-08-24T07:28:01.113Z,20.13
2018-08-24T07:30:28.700Z,20.80
2018-08-24T07:32:56.630Z,27.30
2018-08-24T07:35:25.289Z,20.13
2018-08-24T07:37:52.835Z,18.83
2018-08-24T07:40:20.659Z,18.93
2018-08-24T07:42:48.258Z,21.47
2018-08-24T07:45:16.721Z,22.37
2018-08-24T07:47:44.322Z,18.63
2018-08-24T07:50:11.956Z,23.47
2018-08-24T07:52:39.762Z,18.83
2018-08-24T07:55:09.330Z,17.67
2018-08-24T07:57:37.255Z,19.90
2018-08-24T08:00:05.069Z,22.13
2018-08-24T08:02:32.793Z,18.57
2018-08-24T08:05:00.369Z,18.47
2018-08-24T08:07:27.931Z,20.10
2018-08-24T08:09:55.686Z,22.93
2018-08-24T08:12:23.292Z,19.90
2018-08-24T08:14:50.902Z,16.93
2018-08-24T08:17:18.596Z,18.13
2018-08-24T08:19:46.178Z,20.20
2018-08-24T08:22:13.929Z,16.13
2018-08-24T08:24:41.497Z,15.93
2018-08-24T08:27:09.115Z,16.73
2018-08-24T08:29:36.690Z,17.03
2018-08-24T08:32:04.337Z,20.33
2018-08-24T08:34:32.053Z,16.20
2018-08-24T08:36:59.629Z,18.07
2018-08-24T08:39:27.250Z,16.47
2018-08-24T08:41:54.827Z,16.60
2018-08-24T08:44:22.501Z,13.30
2018-08-24T08:46:50.085Z,18.07
2018-08-24T08:49:17.647Z,14.40
2018-08-24T08:51:45.238Z,12.53
2018-08-24T08:54:12.807Z,9.00
2018-08-24T08:56:40.504Z,7.73
2018-08-24T08:59:08.276Z,11.07
2018-08-24T09:01:35.806Z,8.17
2018-08-24T09:04:03.397Z,8.27
2018-08-24T09:06:31.075Z,10.40
2018-08-24T09:08:58.558Z,11.10
2018-08-24T09:11:26.083Z,17.40
2018-08-24T09:13:53.661Z,14.60
2018-08-24T09:16:21.276Z,12.80
2018-08-24T09:19:05.574Z,9.40
2018-08-24T09:21:48.092Z,13.30
2018-08-24T09:24:31.290Z,15.17
2018-08-24T09:27:14.662Z,14.93
2018-08-24T09:29:42.233Z,15.20
2018-08-24T09:32:10.685Z,12.77
2018-08-24T09:34:38.302Z,10.93
2018-08-24T09:37:05.843Z,10.63
2018-08-24T09:39:33.597Z,10.50
2018-08-24T09:42:01.189Z,10.07
2018-08-24T09:44:29.019Z,10.67
2018-08-24T09:46:56.865Z,8.70
2018-08-24T09:49:24.566Z,12.20
2018-08-24T09:51:52.244Z,10.37
2018-08-24T09:54:19.840Z,10.93
2018-08-24T09:56:47.473Z,10.13
2018-08-24T09:59:15.052Z,15.20
2018-08-24T10:02:01.323Z,9.57
2018-08-24T10:04:48.552Z,8.33
2018-08-24T10:07:20.960Z,13.23
2018-08-24T10:09:48.561Z,6.57
2018-08-24T10:12:16.088Z,8.43
2018-08-24T10:14:43.684Z,8.83
2018-08-24T10:17:11.217Z,11.20
2018-08-24T10:19:38.790Z,10.93
2018-08-24T10:22:06.316Z,12.07
2018-08-24T10:24:33.864Z,9.77
2018-08-24T10:27:01.420Z,11.77
2018-08-24T10:29:29.084Z,12.07
2018-08-24T10:31:56.569Z,9.63
2018-08-24T10:34:24.122Z,9.50
2018-08-24T10:36:51.689Z,7.90
2018-08-24T10:39:19.208Z,7.60
2018-08-24T10:41:46.762Z,5.40
2018-08-24T10:44:14.281Z,6.10
2018-08-24T10:46:41.842Z,6.73
2018-08-24T10:49:09.376Z,7.87
2018-08-24T10:51:36.957Z,7.13
2018-08-24T10:54:04.519Z,6.70
2018-08-24T10:56:32.047Z,5.93
2018-08-24T10:58:59.625Z,4.10
2018-08-24T11:01:27.134Z,5.27
2018-08-24T11:03:54.690Z,5.30
2018-08-24T11:06:22.229Z,4.23
2018-08-24T11:08:49.757Z,7.03
2018-08-24T11:11:17.329Z,3.47
2018-08-24T11:13:44.897Z,7.43
2018-08-24T11:16:12.451Z,4.07
2018-08-24T11:18:39.976Z,4.77
2018-08-24T11:21:07.524Z,5.73
2018-08-24T11:23:35.180Z,3.57
2018-08-24T11:26:02.795Z,4.10
2018-08-24T11:28:30.364Z,8.27
2018-08-24T11:30:58.365Z,4.27
2018-08-24T11:33:25.938Z,6.67
2018-08-24T11:35:53.469Z,5.07
2018-08-24T11:38:21.121Z,3.80
2018-08-24T11:40:48.674Z,8.37
2018-08-24T11:43:16.401Z,6.50
2018-08-24T11:45:43.921Z,2.53
2018-08-24T11:48:11.571Z,2.23
2018-08-24T11:50:39.569Z,5.63
2018-08-24T11:53:07.176Z,3.90
2018-08-24T11:55:34.733Z,6.07
2018-08-24T11:58:02.274Z,6.07
2018-08-24T12:00:29.783Z,5.57
2018-08-24T12:02:57.718Z,5.50
2018-08-24T12:05:25.271Z,5.20
2018-08-24T12:07:52.874Z,3.77
2018-08-24T12:10:20.439Z,5.20
2018-08-24T12:12:48.078Z,4.30
2018-08-24T12:15:15.861Z,2.53
2018-08-24T12:17:43.602Z,2.77
2018-08-24T12:20:11.165Z,5.17
2018-08-24T12:22:38.731Z,3.07
2018-08-24T12:25:06.419Z,2.13
2018-08-24T12:27:34.105Z,3.80
2018-08-24T12:30:01.691Z,3.27
2018-08-24T12:32:29.293Z,4.97
2018-08-24T12:34:57.565Z,3.47
2018-08-24T12:37:25.126Z,3.80
2018-08-24T12:39:52.773Z,3.07
2018-08-24T12:42:20.303Z,4.20
2018-08-24T12:44:47.923Z,6.00
2018-08-24T12:47:15.461Z,4.50
2018-08-24T12:49:43.237Z,3.17
2018-08-24T12:52:10.855Z,8.30
2018-08-24T12:54:38.362Z,5.60
2018-08-24T12:57:05.932Z,4.60
2018-08-24T12:59:33.647Z,3.23
2018-08-24T13:02:01.218Z,4.33
2018-08-24T13:04:28.800Z,3.53
2018-08-24T13:06:56.381Z,3.80
2018-08-24T13:09:23.929Z,5.80
2018-08-24T13:11:51.494Z,3.63
2018-08-24T13:14:19.096Z,6.50
2018-08-24T13:16:46.674Z,2.50
2018-08-24T13:19:14.201Z,3.03
2018-08-24T13:21:41.730Z,3.97
2018-08-24T13:24:09.483Z,3.00
2018-08-24T13:26:37.015Z,3.57
2018-08-24T13:29:04.600Z,4.80
2018-08-24T13:31:32.179Z,2.50
2018-08-24T13:33:59.708Z,2.37
2018-08-24T13:36:27.259Z,3.77
2018-08-24T13:38:54.870Z,3.37
2018-08-24T13:41:22.421Z,4.17
2018-08-24T13:43:49.944Z,2.40
2018-08-24T13:46:17.513Z,5.30
2018-08-24T13:48:45.067Z,3.97
2018-08-24T13:51:12.634Z,2.30
2018-08-24T13:53:40.176Z,4.50
2018-08-24T13:56:07.690Z,2.73
2018-08-24T13:58:35.278Z,4.77
2018-08-24T14:01:02.799Z,2.47
2018-08-24T14:03:30.357Z,3.27
2018-08-24T14:05:57.869Z,2.37
2018-08-24T14:08:25.417Z,4.07
2018-08-24T14:10:53.174Z,3.47
2018-08-24T14:13:20.826Z,5.10
2018-08-24T14:15:48.372Z,2.03
2018-08-24T14:18:15.960Z,2.67
2018-08-24T14:20:43.509Z,4.33
2018-08-24T14:23:11.034Z,4.30
2018-08-24T14:25:38.649Z,2.00
2018-08-24T14:28:06.139Z,2.87
2018-08-24T14:30:33.697Z,1.77
2018-08-24T14:33:01.252Z,4.10
2018-08-24T14:35:36.877Z,4.70
2018-08-24T14:38:04.549Z,3.33
2018-08-24T14:40:32.087Z,2.53
2018-08-24T14:42:59.595Z,2.17
2018-08-24T14:45:27.171Z,3.93
2018-08-24T14:47:54.722Z,4.97
2018-08-24T14:50:22.306Z,3.93
2018-08-24T14:52:49.833Z,2.97
2018-08-24T14:55:17.478Z,2.43
2018-08-24T14:57:44.997Z,4.70
2018-08-24T15:00:12.585Z,7.40
2018-08-24T15:02:40.153Z,4.53
2018-08-24T15:05:07.808Z,4.70
2018-08-24T15:07:35.347Z,2.60
2018-08-24T15:10:03.016Z,4.47
2018-08-24T15:12:30.545Z,3.80
2018-08-24T15:14:58.071Z,2.13
2018-08-24T15:17:25.618Z,2.93
2018-08-24T15:19:53.231Z,3.23
2018-08-24T15:22:20.814Z,2.40
2018-08-24T15:24:48.346Z,2.17
2018-08-24T15:27:15.868Z,2.20
2018-08-24T15:29:43.460Z,5.70
2018-08-24T15:32:10.993Z,3.53
2018-08-24T15:34:38.575Z,1.80
2018-08-24T15:37:06.140Z,3.30
2018-08-24T15:39:33.664Z,4.53
2018-08-24T15:42:01.271Z,6.33
2018-08-24T15:44:28.799Z,1.70
2018-08-24T15:46:56.559Z,4.93
2018-08-24T15:49:24.105Z,3.40
2018-08-24T15:51:51.773Z,2.37
2018-08-24T15:54:19.372Z,3.20
2018-08-24T15:56:46.893Z,3.37
2018-08-24T15:59:14.428Z,2.97
2018-08-24T16:01:41.993Z,6.47
2018-08-24T16:04:09.532Z,2.03
2018-08-24T16:06:37.134Z,3.47
2018-08-24T16:09:04.653Z,3.47
2018-08-24T16:11:32.207Z,3.87
2018-08-24T16:13:59.712Z,3.97
2018-08-24T16:16:27.261Z,2.20
2018-08-24T16:18:54.800Z,2.17
2018-08-24T16:21:22.361Z,2.07
2018-08-24T16:23:49.936Z,4.33
2018-08-24T16:26:17.474Z,5.33
2018-08-24T16:28:45.031Z,2.43
2018-08-24T16:31:12.558Z,1.53
2018-08-24T16:33:40.135Z,2.23
2018-08-24T16:36:07.658Z,5.63
2018-08-24T16:38:35.235Z,4.50
2018-08-24T16:41:02.812Z,5.90
2018-08-24T16:43:30.360Z,2.80
2018-08-24T16:45:57.941Z,3.00
2018-08-24T16:48:25.526Z,2.47
2018-08-24T16:50:53.069Z,4.07
2018-08-24T16:53:20.645Z,2.27
2018-08-24T16:55:48.166Z,2.57
2018-08-24T16:58:15.681Z,5.67
2018-08-24T17:00:43.249Z,3.47
2018-08-24T17:03:10.836Z,2.90
2018-08-24T17:05:38.340Z,4.33
2018-08-24T17:08:05.843Z,1.60
2018-08-24T17:10:33.528Z,2.70
2018-08-24T17:13:01.048Z,1.73
2018-08-24T17:15:28.602Z,2.27
2018-08-24T17:17:56.278Z,1.90
2018-08-24T17:20:23.791Z,4.50
2018-08-24T17:22:51.427Z,7.20
2018-08-24T17:25:19.014Z,4.23
2018-08-24T17:27:46.625Z,2.47
2018-08-24T17:30:14.197Z,3.17
2018-08-24T17:32:41.718Z,2.30
2018-08-24T17:35:09.575Z,3.73
2018-08-24T17:37:37.092Z,1.47
2018-08-24T17:40:04.660Z,4.33
2018-08-24T17:42:32.173Z,4.10
2018-08-24T17:44:59.725Z,2.03
2018-08-24T17:47:27.439Z,5.10
2018-08-24T17:49:54.997Z,2.67
2018-08-24T17:52:22.516Z,3.03
2018-08-24T17:54:50.065Z,1.60
2018-08-24T17:57:17.588Z,1.23
2018-08-24T17:59:45.109Z,1.70
2018-08-24T18:02:12.658Z,2.60
2018-08-24T18:04:40.161Z,3.23
2018-08-24T18:07:07.779Z,1.67
2018-08-24T18:09:35.274Z,5.07
2018-08-24T18:12:02.860Z,2.33
2018-08-24T18:14:30.393Z,2.47
2018-08-24T18:16:57.945Z,4.10
2018-08-24T18:19:25.449Z,3.47
2018-08-24T18:21:53.034Z,7.20
2018-08-24T18:24:20.574Z,3.70
2018-08-24T18:26:48.185Z,1.50
2018-08-24T18:29:15.706Z,1.27
2018-08-24T18:31:43.269Z,2.63
2018-08-24T18:34:10.779Z,2.70
2018-08-24T18:36:38.375Z,2.07
2018-08-24T18:39:05.867Z,4.30
2018-08-24T18:41:33.393Z,5.27
2018-08-24T18:44:01.023Z,4.50
2018-08-24T18:46:28.538Z,2.13
2018-08-24T18:48:56.047Z,3.43
2018-08-24T18:51:23.602Z,4.83
2018-08-24T18:53:51.122Z,3.67
2018-08-24T18:56:18.913Z,3.37
2018-08-24T18:58:46.543Z,4.43
2018-08-24T19:01:14.124Z,2.40
2018-08-24T19:03:41.673Z,3.90
2018-08-24T19:06:09.179Z,1.17
2018-08-24T19:08:36.744Z,8.73
2018-08-24T19:11:04.279Z,2.70
2018-08-24T19:13:31.805Z,3.10
2018-08-24T19:15:59.373Z,1.90
2018-08-24T19:18:43.606Z,2.13
2018-08-24T19:21:26.071Z,1.93
2018-08-24T19:23:53.590Z,4.03
2018-08-24T19:26:21.183Z,4.37
2018-08-24T19:28:48.730Z,2.57
2018-08-24T19:31:16.248Z,2.90
2018-08-24T19:33:43.817Z,3.53
2018-08-24T19:36:11.351Z,1.97
2018-08-24T19:38:38.917Z,1.47
2018-08-24T19:41:22.257Z,2.03
2018-08-24T19:43:49.864Z,3.17
2018-08-24T19:46:17.429Z,2.83
2018-08-24T19:49:00.638Z,1.80
2018-08-24T19:51:28.202Z,2.63
2018-08-24T19:53:55.759Z,4.43
2018-08-24T19:56:23.340Z,2.57
2018-08-24T19:59:07.363Z,4.97
2018-08-24T20:01:34.871Z,4.90
2018-08-24T20:04:02.433Z,2.30
2018-08-24T20:06:30.022Z,3.43
2018-08-24T20:08:58.385Z,3.17
2018-08-24T20:11:25.963Z,2.73
2018-08-24T20:13:53.518Z,2.00
2018-08-24T20:16:26.581Z,1.83
2018-08-24T20:18:54.154Z,6.10
2018-08-24T20:21:21.954Z,1.80
2018-08-24T20:23:49.513Z,2.17
2018-08-24T20:26:17.060Z,1.93
2018-08-24T20:28:44.578Z,3.13
2018-08-24T20:31:12.157Z,6.30
2018-08-24T20:33:39.755Z,2.20
2018-08-24T20:36:07.325Z,2.83
2018-08-24T20:38:34.850Z,3.83
2018-08-24T20:41:02.468Z,4.87
2018-08-24T20:43:30.013Z,1.93
2018-08-24T20:45:57.557Z,6.60
2018-08-24T20:48:25.130Z,2.77
2018-08-24T20:50:52.666Z,5.33
2018-08-24T20:53:20.174Z,6.53
2018-08-24T20:55:47.887Z,2.53
2018-08-24T20:58:15.433Z,4.03
2018-08-24T21:00:43.099Z,2.23
2018-08-24T21:03:10.633Z,6.93
2018-08-24T21:05:38.182Z,2.07
2018-08-24T21:08:05.733Z,2.67
2018-08-24T21:10:33.267Z,7.10
2018-08-24T21:13:00.855Z,1.70
2018-08-24T21:15:28.391Z,1.70
2018-08-24T21:17:55.958Z,4.10
2018-08-24T21:20:23.503Z,2.30
2018-08-24T21:22:51.069Z,2.90
2018-08-24T21:25:18.641Z,7.43
2018-08-24T21:27:46.169Z,3.57
2018-08-24T21:30:13.887Z,5.20
2018-08-24T21:32:41.435Z,2.60
2018-08-24T21:35:08.957Z,8.73
2018-08-24T21:37:36.522Z,7.20
2018-08-24T21:40:04.036Z,10.13
2018-08-24T21:42:31.601Z,8.53
2018-08-24T21:44:59.181Z,6.73
2018-08-24T21:47:26.747Z,5.97
2018-08-24T21:49:54.338Z,3.30
2018-08-24T21:52:21.894Z,1.80
2018-08-24T21:54:49.424Z,2.37
2018-08-24T21:57:16.944Z,3.67
2018-08-24T21:59:44.525Z,5.47
2018-08-24T22:02:12.041Z,5.07
2018-08-24T22:04:39.562Z,3.50
2018-08-24T22:07:07.140Z,3.47
2018-08-24T22:09:34.705Z,2.07
2018-08-24T22:12:02.259Z,2.50
2018-08-24T22:14:29.985Z,3.37
2018-08-24T22:16:57.565Z,5.40
2018-08-24T22:19:25.063Z,1.90
2018-08-24T22:21:52.653Z,3.80
2018-08-24T22:24:20.190Z,2.40
2018-08-24T22:26:47.733Z,6.83
2018-08-24T22:29:15.312Z,3.03
2018-08-24T22:31:42.857Z,2.87
2018-08-24T22:34:10.443Z,6.10
2018-08-24T22:36:37.951Z,5.60
2018-08-24T22:39:05.464Z,5.60
2018-08-24T22:41:33.042Z,2.33
2018-08-24T22:44:00.625Z,3.40
2018-08-24T22:46:28.191Z,5.60
2018-08-24T22:48:55.756Z,2.70
2018-08-24T22:51:23.460Z,3.10
2018-08-24T22:53:50.977Z,4.53
2018-08-24T22:56:18.517Z,4.70
2018-08-24T22:58:46.092Z,4.20
2018-08-24T23:01:13.798Z,3.13
2018-08-24T23:03:41.343Z,2.53
2018-08-24T23:06:08.866Z,3.47
2018-08-24T23:08:36.414Z,2.17
2018-08-24T23:11:03.914Z,3.87
2018-08-24T23:13:31.461Z,3.53
2018-08-24T23:15:58.966Z,5.83
2018-08-24T23:18:26.523Z,4.60
2018-08-24T23:20:54.090Z,1.80
2018-08-24T23:23:21.634Z,4.03
2018-08-24T23:25:49.253Z,6.13
2018-08-24T23:28:16.957Z,2.67
2018-08-24T23:30:44.595Z,6.20
2018-08-24T23:33:12.390Z,2.03
2018-08-24T23:35:39.976Z,2.33
2018-08-24T23:38:07.662Z,6.07
2018-08-24T23:40:35.348Z,4.50
2018-08-24T23:43:03.073Z,2.43
2018-08-24T23:45:30.656Z,5.53
2018-08-24T23:47:58.236Z,4.10
2018-08-24T23:50:25.977Z,4.10
2018-08-24T23:52:53.577Z,6.20
2018-08-24T23:55:21.189Z,4.13
2018-08-24T23:57:48.896Z,3.40
